Erwin Heights, North Carolina
Current Conditions -  °F | °C
As of 8:35 PM on Wednesday 22 Oct 2014 (Local Time) from KEXX Reporting Station
Clear Clear  
Wind Chill: 52°   Ceiling: Unl
Heat Index: 52°   Visibility: 10mi
Dew Point: 39°   Wind: 3mph
Humidity: 60%   Direction: 320°NW
Pressure: 30.07"   Gusts: NA
Location:  35.864°N, 80.1016°W
Report Text: KEXX 230035Z AUTO 32003KT 10SM CLR 11/04 A3007 RMK AO2 T01110037
Loading
Personal Weather Stations






























Interactive Weather Map
Tropical Storm Tracking
New forecast layout! Learn more

10-Day Weather Forecast

Advertisements
Track Severe Weather on mobile